Time;durP1;ratioP1;P1;durP2;ratioP2;P2;SDS_P1;SDS_P2;PMS_P1;PMS_P2;Temp;Humidity;BMP_temperature;BMP_pressure;BME280_temperature;BME280_humidity;BME280_pressure;Samples;Min_cycle;Max_cycle;Signal;HPM_P1;HPM_P2
2023/05/01 00:01:42;;;;;;;;;11.75;10.75;;;;;2.84;87.67;98956.25;4968225;28;101936;-75
2023/05/01 00:04:17;;;;;;;;;10.50;9.75;;;;;2.81;86.16;98954.72;4963375;28;103367;-76
2023/05/01 00:07:04;;;;;;;;;7.75;5.50;;;;;2.75;86.57;98955.28;4971148;28;101947;-75
2023/05/01 00:09:46;;;;;;;;;10.50;9.50;;;;;2.37;86.56;98918.81;4954722;28;101829;-77
2023/05/01 00:12:45;;;;;;;;;10.50;6.75;;;;;2.62;89.21;98962.75;4969494;28;102018;-76
2023/05/01 00:15:31;;;;;;;;;6.00;5.50;;;;;2.58;89.23;98958.69;4962628;28;106796;-76
2023/05/01 00:18:07;;;;;;;;;6.25;5.00;;;;;2.54;87.99;98955.47;4964995;28;101834;-76
2023/05/01 00:20:34;;;;;;;;;8.50;6.50;;;;;2.51;86.37;98950.41;4964159;27;101537;-77
2023/05/01 00:23:01;;;;;;;;;4.50;4.50;;;;;2.49;86.96;98955.03;4971609;28;101589;-76
2023/05/01 00:25:28;;;;;;;;;9.00;7.00;;;;;2.45;87.10;98953.66;4966572;28;107916;-77
2023/05/01 00:27:55;;;;;;;;;6.25;5.00;;;;;2.39;88.76;98950.69;4965797;28;101712;-77
2023/05/01 00:30:22;;;;;;;;;11.25;9.25;;;;;2.32;91.38;98957.59;4965084;28;101884;-77
2023/05/01 00:32:48;;;;;;;;;20.50;14.00;;;;;2.15;92.50;98945.78;4966939;27;101464;-76
2023/05/01 00:35:16;;;;;;;;;13.00;10.75;;;;;2.14;93.13;98952.09;4968171;27;103375;-75
2023/05/01 00:37:43;;;;;;;;;12.50;10.00;;;;;2.04;93.20;98935.25;4958747;28;101988;-76
2023/05/01 00:40:10;;;;;;;;;11.00;10.00;;;;;2.09;93.80;98952.50;4964776;28;101715;-77
2023/05/01 00:42:38;;;;;;;;;11.25;10.75;;;;;1.77;93.82;98898.59;4960953;28;102148;-77
2023/05/01 00:45:07;;;;;;;;;13.00;10.25;;;;;1.98;93.62;98943.81;4962470;28;103489;-75
2023/05/01 00:47:37;;;;;;;;;9.00;8.50;;;;;2.06;93.46;98954.63;4959842;27;102058;-75
2023/05/01 00:50:05;;;;;;;;;10.75;8.50;;;;;2.02;93.42;98946.06;4966133;27;101637;-75
2023/05/01 00:52:32;;;;;;;;;10.50;8.00;;;;;2.04;93.98;98953.91;4964094;27;101523;-77
2023/05/01 00:54:59;;;;;;;;;10.00;10.00;;;;;2.00;94.76;98947.16;4959732;28;108347;-77
2023/05/01 00:57:26;;;;;;;;;11.50;10.00;;;;;1.84;95.16;98945.06;4958856;28;102077;-77
2023/05/01 00:59:53;;;;;;;;;19.00;15.67;;;;;1.59;97.04;98918.91;4965507;28;101596;-77
2023/05/01 01:02:21;;;;;;;;;25.67;21.00;;;;;1.70;96.73;98951.63;4953606;28;101808;-77
2023/05/01 01:04:55;;;;;;;;;34.00;23.33;;;;;1.64;97.15;98952.16;4965396;27;103330;-77
2023/05/01 01:07:41;;;;;;;;;36.00;30.00;;;;;1.55;97.58;98952.97;4966680;28;101713;-75
2023/05/01 01:11:03;;;;;;;;;41.00;32.67;;;;;1.42;99.44;98957.69;4965572;28;106731;-77
2023/05/01 01:14:10;;;;;;;;;46.33;33.33;;;;;1.35;98.27;98949.38;4965797;27;101922;-77
2023/05/01 01:17:07;;;;;;;;;31.67;28.33;;;;;1.37;97.65;98951.94;4955962;28;107971;-77
2023/05/01 01:20:09;;;;;;;;;29.00;24.33;;;;;1.42;96.82;98952.38;4962462;28;101810;-77
2023/05/01 01:22:40;;;;;;;;;31.33;22.67;;;;;1.47;95.80;98950.16;4958799;28;101586;-76
2023/05/01 01:25:45;;;;;;;;;16.33;13.00;;;;;1.42;94.48;98938.19;4957123;28;101526;-76
2023/05/01 01:28:24;;;;;;;;;12.00;12.00;;;;;1.44;93.21;98953.06;4957279;27;107543;-75
2023/05/01 01:31:12;;;;;;;;;13.33;10.67;;;;;1.36;94.79;98952.91;4964823;28;101615;-77
2023/05/01 01:34:03;;;;;;;;;27.33;22.00;;;;;1.20;96.04;98942.75;4964770;28;101391;-76
2023/05/01 01:36:55;;;;;;;;;28.67;26.00;;;;;1.17;97.15;98942.19;4970125;28;101527;-77
2023/05/01 01:39:42;;;;;;;;;28.33;24.33;;;;;0.95;97.30;98899.75;4965038;27;107986;-77
2023/05/01 01:42:17;;;;;;;;;19.00;18.00;;;;;1.26;97.72;98941.38;4968371;28;101583;-77
2023/05/01 01:44:49;;;;;;;;;16.33;16.00;;;;;1.31;96.67;98939.97;4968775;28;102205;-76
2023/05/01 01:47:19;;;;;;;;;15.67;14.33;;;;;1.35;94.76;98937.91;4961231;28;101669;-76
2023/05/01 01:49:51;;;;;;;;;10.00;8.00;;;;;1.34;93.61;98939.75;4953283;28;103667;-77
2023/05/01 01:52:20;;;;;;;;;22.00;12.33;;;;;1.24;93.77;98928.19;4963172;28;101821;-76
2023/05/01 01:54:51;;;;;;;;;16.67;16.00;;;;;1.22;94.18;98930.13;4955744;28;101273;-77
2023/05/01 01:57:21;;;;;;;;;17.67;14.67;;;;;1.19;94.08;98935.75;4967138;28;101958;-77
2023/05/01 01:59:50;;;;;;;;;37.33;32.00;;;;;1.06;94.56;98927.13;4969446;28;103336;-75
2023/05/01 02:02:19;;;;;;;;;44.33;38.00;;;;;0.94;94.48;98928.22;4970066;28;102372;-76
2023/05/01 02:04:48;;;;;;;;;46.67;38.33;;;;;0.88;96.32;98926.91;4963269;28;101581;-77
2023/05/01 02:07:17;;;;;;;;;49.67;42.00;;;;;0.74;99.40;98921.09;4972596;28;101502;-76
2023/05/01 02:09:45;;;;;;;;;47.67;38.00;;;;;0.35;99.33;98870.31;4962041;28;103337;-77
2023/05/01 02:12:15;;;;;;;;;50.67;39.00;;;;;0.66;98.08;98916.44;4958069;28;102094;-75
2023/05/01 02:14:45;;;;;;;;;35.00;32.67;;;;;0.67;99.28;98917.28;4952930;28;101804;-75
2023/05/01 02:17:15;;;;;;;;;41.33;33.33;;;;;0.56;99.98;98910.19;4965101;28;102010;-75
2023/05/01 02:19:44;;;;;;;;;40.67;33.67;;;;;0.51;100.00;98887.63;4961752;28;103541;-75
2023/05/01 02:22:12;;;;;;;;;30.00;24.00;;;;;0.65;100.00;98913.88;4962767;28;101893;-75
2023/05/01 02:24:42;;;;;;;;;45.67;39.67;;;;;0.56;99.88;98910.19;4965406;28;101345;-76
2023/05/01 02:27:19;;;;;;;;;47.67;38.00;;;;;0.48;99.57;98903.84;4966721;28;101651;-76
2023/05/01 02:29:47;;;;;;;;;58.67;46.00;;;;;0.17;100.00;98905.59;4960658;28;103383;-76
2023/05/01 02:32:14;;;;;;;;;50.67;41.67;;;;;0.18;100.00;98901.97;4962332;28;101689;-77
2023/05/01 02:34:41;;;;;;;;;58.33;40.00;;;;;0.07;100.00;98896.69;4965782;28;101663;-75
2023/05/01 02:37:10;;;;;;;;;39.00;35.00;;;;;0.18;100.00;98894.81;4967412;28;101986;-75
2023/05/01 02:39:38;;;;;;;;;30.00;27.00;;;;;0.20;100.00;98902.66;4969353;28;103333;-75
2023/05/01 02:42:08;;;;;;;;;16.67;15.00;;;;;0.26;100.00;98886.22;4972211;28;101626;-76
2023/05/01 02:44:44;;;;;;;;;21.33;17.33;;;;;0.26;100.00;98896.84;4965212;28;101564;-76
2023/05/01 02:47:17;;;;;;;;;20.00;16.67;;;;;0.27;100.00;98885.25;4961197;28;101601;-75
2023/05/01 02:49:46;;;;;;;;;24.33;13.33;;;;;0.33;100.00;98890.88;4961139;28;103324;-74
2023/05/01 02:52:16;;;;;;;;;15.00;10.67;;;;;0.36;99.44;98889.78;4961461;28;101569;-75
2023/05/01 02:54:46;;;;;;;;;11.67;9.33;;;;;0.38;99.58;98885.16;4958183;28;101506;-76
2023/05/01 02:57:13;;;;;;;;;11.67;9.00;;;;;0.31;98.63;98882.19;4954356;28;101394;-75
2023/05/01 02:59:40;;;;;;;;;23.33;15.33;;;;;0.23;98.69;98887.28;4965354;28;103321;-75
2023/05/01 03:02:07;;;;;;;;;26.33;20.00;;;;;0.15;99.78;98887.09;4961698;28;101694;-74
2023/05/01 03:04:34;;;;;;;;;25.67;20.67;;;;;0.09;100.00;98886.78;4968267;28;101861;-76
2023/05/01 03:07:01;;;;;;;;;20.00;17.00;;;;;0.16;100.00;98893.25;4958904;28;101588;-76
2023/05/01 03:09:28;;;;;;;;;19.00;17.33;;;;;0.14;100.00;98882.75;4959467;28;103308;-77
2023/05/01 03:11:55;;;;;;;;;20.67;16.33;;;;;0.19;100.00;98895.66;4955558;28;101563;-75
2023/05/01 03:14:22;;;;;;;;;24.00;18.00;;;;;0.18;100.00;98899.31;4962980;28;102047;-77
2023/05/01 03:16:49;;;;;;;;;20.00;16.00;;;;;0.03;100.00;98866.03;4966722;28;101903;-76
2023/05/01 03:19:16;;;;;;;;;16.33;15.67;;;;;0.24;100.00;98881.00;4963316;28;103542;-76
2023/05/01 03:21:43;;;;;;;;;19.00;15.00;;;;;0.24;100.00;98882.81;4968780;28;101554;-75
2023/05/01 03:24:10;;;;;;;;;16.33;12.33;;;;;0.17;99.49;98873.69;4966388;28;101287;-76
2023/05/01 03:26:37;;;;;;;;;11.67;9.00;;;;;0.12;99.16;98874.06;4963774;28;101639;-74
2023/05/01 03:29:04;;;;;;;;;11.00;6.00;;;;;0.32;100.00;98880.34;4972932;28;102355;-76
2023/05/01 03:31:31;;;;;;;;;6.00;6.00;;;;;0.35;99.92;98883.63;4966191;28;101780;-75
2023/05/01 03:33:58;;;;;;;;;11.00;9.67;;;;;0.28;97.69;98873.59;4955078;28;101693;-76
2023/05/01 03:36:26;;;;;;;;;17.67;10.33;;;;;0.25;98.11;98887.19;4964931;28;101568;-76
2023/05/01 03:38:53;;;;;;;;;11.00;9.67;;;;;0.26;97.75;98888.88;4957653;28;103335;-77
2023/05/01 03:41:20;;;;;;;;;7.00;6.67;;;;;0.23;98.11;98881.13;4957106;28;101805;-75
2023/05/01 03:43:47;;;;;;;;;7.33;6.00;;;;;0.26;99.73;98880.88;4966257;28;101871;-75
2023/05/01 03:46:14;;;;;;;;;6.00;6.00;;;;;0.31;100.00;98882.19;4960949;28;101437;-75
2023/05/01 03:48:41;;;;;;;;;5.00;5.00;;;;;0.34;100.00;98876.59;4965678;28;103517;-76
2023/05/01 03:51:08;;;;;;;;;5.33;4.00;;;;;0.42;100.00;98886.59;4961832;27;101530;-76
2023/05/01 03:53:35;;;;;;;;;6.00;5.33;;;;;0.45;99.64;98884.50;4972174;28;102401;-76
2023/05/01 03:56:03;;;;;;;;;15.67;12.00;;;;;0.36;99.39;98887.94;4969207;28;101771;-75
2023/05/01 03:58:30;;;;;;;;;8.67;8.00;;;;;0.45;99.91;98875.72;4962243;28;103407;-77
2023/05/01 04:00:59;;;;;;;;;12.00;11.33;;;;;0.47;99.41;98878.22;4962116;28;101856;-76
2023/05/01 04:03:27;;;;;;;;;8.67;8.00;;;;;0.51;98.90;98874.31;4965154;28;101746;-76
2023/05/01 04:05:54;;;;;;;;;9.33;8.67;;;;;0.59;99.93;98871.84;4970368;28;101478;-76
2023/05/01 04:08:22;;;;;;;;;14.33;12.00;;;;;0.51;98.90;98859.19;4959287;28;103157;-75
2023/05/01 04:10:49;;;;;;;;;17.33;15.33;;;;;0.54;100.00;98866.09;4963298;28;101749;-76
2023/05/01 04:13:16;;;;;;;;;11.67;10.33;;;;;0.65;99.99;98866.00;4960730;28;101913;-76
2023/05/01 04:15:46;;;;;;;;;10.00;10.00;;;;;0.76;99.41;98866.78;4960139;28;101948;-77
2023/05/01 04:18:13;;;;;;;;;12.67;9.67;;;;;0.48;98.79;98805.44;4967912;28;103473;-75
2023/05/01 04:20:40;;;;;;;;;14.67;13.67;;;;;0.85;98.79;98863.31;4961803;28;101963;-76
2023/05/01 04:23:08;;;;;;;;;14.33;12.33;;;;;0.97;98.59;98868.53;4962169;28;101838;-77
2023/05/01 04:25:35;;;;;;;;;17.00;12.33;;;;;1.03;98.68;98860.00;4957872;28;101647;-76
2023/05/01 04:28:03;;;;;;;;;16.67;10.00;;;;;1.03;98.76;98844.03;4972038;28;107996;-76
2023/05/01 04:30:30;;;;;;;;;10.00;6.67;;;;;1.22;97.74;98860.03;4968386;28;101591;-76
2023/05/01 04:32:57;;;;;;;;;12.67;10.67;;;;;1.32;97.44;98859.09;4963974;28;101775;-77
2023/05/01 04:35:24;;;;;;;;;9.67;9.00;;;;;1.48;96.85;98863.06;4970025;28;101558;-74
2023/05/01 04:37:51;;;;;;;;;9.00;9.00;;;;;1.60;94.46;98854.81;4954621;28;103328;-76
2023/05/01 04:40:18;;;;;;;;;13.33;12.00;;;;;1.75;94.29;98857.91;4969013;28;106864;-76
2023/05/01 04:42:45;;;;;;;;;11.33;9.67;;;;;1.87;93.11;98855.94;4967209;27;101509;-74
2023/05/01 04:45:12;;;;;;;;;10.67;9.67;;;;;1.96;92.44;98860.44;4969503;27;101923;-75
2023/05/01 04:47:39;;;;;;;;;15.33;11.33;;;;;2.54;92.47;98856.72;4972106;28;103322;-74
2023/05/01 04:50:07;;;;;;;;;13.25;10.75;;;;;3.57;86.70;98862.72;4973696;28;101693;-76
2023/05/01 04:52:34;;;;;;;;;15.75;12.75;;;;;4.60;82.52;98853.25;4963467;28;101616;-77
2023/05/01 04:55:02;;;;;;;;;14.25;11.25;;;;;5.47;77.65;98853.03;4953773;28;101789;-77
2023/05/01 04:57:29;;;;;;;;;13.75;10.00;;;;;6.15;74.53;98856.38;4960476;28;103381;-76
2023/05/01 04:59:56;;;;;;;;;14.00;13.00;;;;;6.62;73.42;98854.69;4962435;28;101357;-75
2023/05/01 05:02:24;;;;;;;;;15.25;12.00;;;;;7.58;71.47;98851.88;4957476;28;101858;-76
2023/05/01 05:04:53;;;;;;;;;13.00;10.00;;;;;7.38;68.06;98808.44;4972598;28;101542;-78
2023/05/01 05:07:20;;;;;;;;;12.00;12.00;;;;;8.05;67.12;98855.31;4967902;28;103377;-77
2023/05/01 05:09:47;;;;;;;;;7.50;6.25;;;;;8.36;64.58;98840.94;4971380;27;101643;-76
2023/05/01 05:12:14;;;;;;;;;13.50;11.50;;;;;8.81;66.63;98848.97;4966000;28;103051;-76
2023/05/01 05:14:42;;;;;;;;;14.00;11.25;;;;;9.01;62.99;98856.50;4965633;28;101789;-77
2023/05/01 05:17:09;;;;;;;;;8.50;7.00;;;;;9.33;61.27;98853.44;4971876;27;103548;-75
2023/05/01 05:19:35;;;;;;;;;10.00;8.00;;;;;9.64;60.86;98816.25;4966846;28;101788;-76
2023/05/01 05:22:03;;;;;;;;;10.75;10.75;;;;;9.49;60.21;98850.56;4965367;28;101681;-76
2023/05/01 05:24:30;;;;;;;;;16.00;12.50;;;;;9.24;60.48;98857.25;4970104;28;101869;-76
2023/05/01 05:26:57;;;;;;;;;14.75;10.00;;;;;9.82;59.24;98843.69;4966138;27;103359;-77
2023/05/01 05:29:24;;;;;;;;;15.50;11.75;;;;;9.54;59.24;98842.72;4955724;28;101747;-75
2023/05/01 05:32:02;;;;;;;;;15.25;14.25;;;;;9.93;61.76;98842.34;4957542;28;101635;-78
2023/05/01 05:34:50;;;;;;;;;12.75;11.25;;;;;10.35;55.51;98849.69;4964810;28;101894;-77
2023/05/01 05:37:24;;;;;;;;;15.50;11.00;;;;;11.21;53.77;98843.06;4960994;28;107265;-77
2023/05/01 05:39:52;;;;;;;;;15.00;12.00;;;;;11.73;54.20;98845.22;4963307;28;102574;-76
2023/05/01 05:42:19;;;;;;;;;12.50;11.75;;;;;11.24;53.33;98831.84;4958475;28;101893;-77
2023/05/01 05:44:46;;;;;;;;;10.25;9.00;;;;;11.98;50.30;98840.09;4968908;28;101635;-76
2023/05/01 05:47:13;;;;;;;;;9.00;8.00;;;;;13.15;51.69;98829.56;4952471;28;103531;-77
2023/05/01 05:49:40;;;;;;;;;6.50;6.25;;;;;13.70;46.58;98836.28;4967235;28;102795;-76
2023/05/01 05:52:07;;;;;;;;;9.00;7.25;;;;;14.27;46.16;98838.91;4961555;28;101767;-77
2023/05/01 05:54:34;;;;;;;;;7.00;7.00;;;;;14.96;45.39;98842.59;4962197;28;101787;-76
2023/05/01 05:57:02;;;;;;;;;8.33;8.33;;;;;15.58;49.60;98834.22;4967565;27;103245;-77
2023/05/01 05:59:29;;;;;;;;;5.33;5.00;;;;;15.59;42.48;98841.34;4967725;28;101836;-76
2023/05/01 06:01:56;;;;;;;;;12.00;8.67;;;;;15.18;44.60;98830.22;4967319;28;102270;-77
2023/05/01 06:04:23;;;;;;;;;7.00;6.00;;;;;15.33;42.00;98816.25;4965810;28;101928;-75
2023/05/01 06:06:50;;;;;;;;;8.67;7.67;;;;;15.97;41.98;98840.28;4954773;28;103509;-76
2023/05/01 06:09:17;;;;;;;;;7.00;7.00;;;;;15.70;42.40;98845.22;4965320;28;101543;-78
2023/05/01 06:11:45;;;;;;;;;7.00;5.00;;;;;15.05;40.60;98842.09;4965702;28;103314;-77
2023/05/01 06:14:12;;;;;;;;;6.00;6.00;;;;;13.94;43.45;98811.09;4964744;28;101816;-77
2023/05/01 06:16:46;;;;;;;;;9.00;7.00;;;;;14.22;44.99;98841.47;4957061;28;103642;-74
2023/05/01 06:19:27;;;;;;;;;4.33;3.33;;;;;15.11;41.89;98843.94;4966716;28;101862;-78
2023/05/01 06:22:03;;;;;;;;;4.67;4.00;;;;;15.28;40.47;98841.44;4962676;28;101835;-77
2023/05/01 06:24:41;;;;;;;;;6.67;6.00;;;;;15.04;39.85;98839.63;4970617;28;101915;-77
2023/05/01 06:27:08;;;;;;;;;4.00;4.00;;;;;15.53;39.26;98845.00;4965420;28;103325;-78
2023/05/01 06:29:35;;;;;;;;;6.00;5.67;;;;;15.37;39.28;98839.25;4964612;28;101464;-77
2023/05/01 06:32:03;;;;;;;;;4.00;4.00;;;;;15.66;38.61;98837.72;4967062;28;101414;-78
2023/05/01 06:34:30;;;;;;;;;6.33;4.33;;;;;15.23;38.28;98838.56;4964630;28;102258;-77
2023/05/01 06:36:56;;;;;;;;;5.33;4.00;;;;;14.97;40.55;98831.50;4966382;28;103363;-77
2023/05/01 06:39:23;;;;;;;;;4.00;4.00;;;;;14.86;39.25;98837.66;4968782;28;103928;-78
2023/05/01 06:41:50;;;;;;;;;4.00;3.00;;;;;14.87;39.17;98833.88;4967120;28;102899;-77
2023/05/01 06:44:17;;;;;;;;;4.00;3.00;;;;;14.68;38.65;98830.25;4955121;28;101717;-77
2023/05/01 06:46:44;;;;;;;;;2.00;2.00;;;;;14.73;39.80;98832.31;4954859;28;103365;-78
2023/05/01 06:49:11;;;;;;;;;4.67;3.33;;;;;14.46;39.92;98830.84;4967361;28;101481;-77
2023/05/01 06:51:38;;;;;;;;;3.00;2.00;;;;;14.76;40.81;98831.91;4959614;28;101955;-75
2023/05/01 06:54:05;;;;;;;;;2.33;2.33;;;;;15.40;39.21;98836.09;4964770;28;101887;-77
2023/05/01 06:56:32;;;;;;;;;1.67;1.00;;;;;15.60;39.20;98836.72;4963641;28;103258;-77
2023/05/01 06:58:59;;;;;;;;;5.00;4.00;;;;;14.62;40.15;98833.88;4960259;28;101583;-78
2023/05/01 07:01:26;;;;;;;;;3.67;3.00;;;;;15.49;39.09;98834.75;4955521;28;101588;-77
2023/05/01 07:03:53;;;;;;;;;2.67;2.67;;;;;15.64;40.24;98837.94;4965187;28;101982;-79
2023/05/01 07:06:20;;;;;;;;;2.00;2.00;;;;;16.15;37.89;98803.94;4954750;28;103492;-77
2023/05/01 07:08:47;;;;;;;;;3.00;2.00;;;;;15.68;38.77;98825.53;4951423;28;101584;-76
2023/05/01 07:11:15;;;;;;;;;2.00;2.00;;;;;15.08;38.76;98819.84;4974162;28;101805;-76
2023/05/01 07:13:41;;;;;;;;;1.00;1.00;;;;;15.45;37.79;98825.34;4966281;28;101811;-77
2023/05/01 07:16:08;;;;;;;;;1.00;1.00;;;;;15.72;38.17;98825.88;4957854;28;107999;-76
2023/05/01 07:18:36;;;;;;;;;2.00;1.33;;;;;15.29;37.46;98825.94;4970239;28;101939;-77
2023/05/01 07:21:04;;;;;;;;;1.00;1.00;;;;;14.96;40.05;98832.53;4958946;28;101881;-76
2023/05/01 07:23:31;;;;;;;;;4.33;2.67;;;;;15.27;38.83;98828.03;4961426;28;101597;-76
2023/05/01 07:25:58;;;;;;;;;3.00;2.00;;;;;15.49;38.71;98834.75;4962688;28;103428;-77
2023/05/01 07:28:25;;;;;;;;;2.00;2.00;;;;;15.24;38.86;98825.78;4965621;28;101506;-77
2023/05/01 07:30:51;;;;;;;;;3.00;3.00;;;;;15.13;38.72;98830.06;4955102;28;101725;-78
2023/05/01 07:33:18;;;;;;;;;3.33;2.33;;;;;15.23;41.54;98827.66;4965541;28;102155;-77
2023/05/01 07:35:45;;;;;;;;;4.00;4.00;;;;;15.03;39.16;98819.72;4958913;28;103524;-76
2023/05/01 07:38:14;;;;;;;;;4.00;3.00;;;;;15.03;42.57;98829.78;4969323;28;101422;-77
2023/05/01 07:40:41;;;;;;;;;2.00;2.00;;;;;15.04;38.69;98824.09;4958829;28;101609;-78
2023/05/01 07:43:11;;;;;;;;;2.00;2.00;;;;;14.78;39.29;98821.59;4961164;28;101752;-77
2023/05/01 07:45:40;;;;;;;;;5.33;3.67;;;;;14.49;39.86;98822.28;4962234;28;107342;-76
2023/05/01 07:48:07;;;;;;;;;2.00;2.00;;;;;14.51;39.80;98821.00;4960787;28;101766;-76
2023/05/01 07:50:34;;;;;;;;;7.00;5.50;;;;;14.15;39.71;98829.78;4965974;28;101968;-78
2023/05/01 07:53:01;;;;;;;;;3.00;2.75;;;;;14.67;41.34;98820.47;4955683;28;101511;-77
2023/05/01 07:55:28;;;;;;;;;2.00;2.00;;;;;14.85;38.75;98824.28;4958046;28;103135;-78
2023/05/01 07:57:55;;;;;;;;;2.25;2.00;;;;;14.83;38.61;98823.66;4965695;28;101684;-76
2023/05/01 08:00:22;;;;;;;;;1.00;1.00;;;;;14.92;38.73;98820.44;4969781;28;102309;-77
2023/05/01 08:02:50;;;;;;;;;1.00;1.00;;;;;14.96;41.00;98821.66;4969152;28;101877;-77
2023/05/01 08:05:17;;;;;;;;;3.00;3.00;;;;;14.90;40.52;98822.56;4958176;28;103003;-76
2023/05/01 08:07:44;;;;;;;;;2.00;1.00;;;;;14.73;39.84;98824.16;4966436;28;101821;-75
2023/05/01 08:10:11;;;;;;;;;1.00;1.00;;;;;14.74;39.29;98823.94;4967188;28;101549;-77
2023/05/01 08:12:38;;;;;;;;;2.00;2.00;;;;;14.77;38.73;98822.66;4955797;28;102626;-77
2023/05/01 08:15:06;;;;;;;;;3.75;2.00;;;;;14.87;38.91;98817.53;4958703;28;103390;-76
2023/05/01 08:17:34;;;;;;;;;2.00;2.00;;;;;14.96;37.26;98807.19;4968473;27;101431;-77
2023/05/01 08:20:02;;;;;;;;;2.00;1.33;;;;;15.07;38.41;98811.91;4972437;28;101519;-76
2023/05/01 08:22:29;;;;;;;;;1.00;1.00;;;;;15.00;38.34;98811.97;4963206;28;102599;-77
2023/05/01 08:24:56;;;;;;;;;2.00;2.00;;;;;15.05;39.54;98797.69;4967629;27;103250;-76
2023/05/01 08:27:23;;;;;;;;;2.00;2.00;;;;;15.34;39.64;98820.66;4965332;28;101654;-76
2023/05/01 08:29:50;;;;;;;;;2.33;2.33;;;;;14.84;39.09;98763.56;4964909;28;101585;-76
2023/05/01 08:32:17;;;;;;;;;3.00;2.00;;;;;15.33;36.65;98813.53;4965938;28;101586;-77
2023/05/01 08:34:45;;;;;;;;;1.00;1.00;;;;;15.45;39.58;98804.38;4970677;28;103388;-75
2023/05/01 08:37:12;;;;;;;;;3.00;2.00;;;;;15.61;37.00;98808.44;4968147;28;101618;-75
2023/05/01 08:39:39;;;;;;;;;1.33;1.00;;;;;15.79;36.87;98810.28;4965050;28;105532;-76
2023/05/01 08:42:07;;;;;;;;;1.00;1.00;;;;;15.90;37.31;98807.63;4970398;28;102010;-76
2023/05/01 08:44:38;;;;;;;;;1.33;1.00;;;;;15.93;39.26;98800.88;4977603;28;103389;-76
2023/05/01 08:47:14;;;;;;;;;2.00;2.00;;;;;15.62;36.27;98804.66;4966582;28;101853;-77
2023/05/01 08:49:42;;;;;;;;;1.67;1.00;;;;;15.54;36.98;98755.88;4959993;28;101557;-76
2023/05/01 08:52:14;;;;;;;;;0.33;0.33;;;;;15.30;36.37;98685.94;4967036;28;102110;-76
2023/05/01 08:54:43;;;;;;;;;1.00;1.00;;;;;16.05;38.88;98802.59;4958873;28;107317;-77
2023/05/01 08:57:11;;;;;;;;;3.00;3.00;;;;;16.21;37.02;98800.28;4965485;28;101718;-76
2023/05/01 08:59:39;;;;;;;;;1.00;1.00;;;;;16.16;36.73;98802.88;4968734;28;101653;-77
2023/05/01 09:02:08;;;;;;;;;3.00;2.00;;;;;15.74;34.78;98797.34;4958232;28;101719;-77
2023/05/01 09:04:40;;;;;;;;;3.33;3.00;;;;;15.71;36.21;98792.38;4959431;28;103354;-76
2023/05/01 09:07:08;;;;;;;;;2.00;2.00;;;;;15.74;35.98;98797.34;4969895;28;101644;-76
2023/05/01 09:09:35;;;;;;;;;5.33;4.00;;;;;15.35;35.58;98795.06;4964339;28;101623;-75
2023/05/01 09:12:17;;;;;;;;;3.00;3.00;;;;;15.63;35.39;98787.19;4968026;28;101468;-77
2023/05/01 09:14:44;;;;;;;;;2.00;2.00;;;;;15.97;35.81;98788.44;4965881;28;107747;-76
2023/05/01 09:17:12;;;;;;;;;2.33;2.33;;;;;16.12;36.90;98760.75;4959402;28;101604;-76
2023/05/01 09:19:40;;;;;;;;;1.33;1.33;;;;;16.22;35.57;98778.22;4959692;28;106242;-76
2023/05/01 09:22:08;;;;;;;;;7.00;4.25;;;;;15.96;34.81;98773.97;4961410;28;101802;-76
2023/05/01 09:24:35;;;;;;;;;4.00;4.00;;;;;16.04;36.96;98776.38;4966861;28;103018;-75
2023/05/01 09:27:02;;;;;;;;;2.00;2.00;;;;;16.05;32.87;98775.31;4968847;27;102434;-76
2023/05/01 09:29:44;;;;;;;;;2.00;2.00;;;;;16.31;32.73;98760.44;4967042;28;101667;-76
2023/05/01 09:32:21;;;;;;;;;2.00;2.00;;;;;16.55;33.47;98777.69;4962363;28;102125;-76
2023/05/01 09:34:49;;;;;;;;;4.67;4.00;;;;;16.67;34.14;98764.06;4962918;28;107945;-71
2023/05/01 09:37:32;;;;;;;;;4.67;4.33;;;;;15.90;35.52;98760.41;4959448;28;102801;-75
2023/05/01 09:40:07;;;;;;;;;6.33;4.67;;;;;16.39;36.38;98734.72;4970964;28;102007;-77
2023/05/01 09:42:58;;;;;;;;;3.33;3.00;;;;;16.47;31.80;98750.75;4965697;28;101549;-75
2023/05/01 09:45:25;;;;;;;;;3.00;3.00;;;;;16.83;32.98;98742.38;4955535;28;107919;-77
2023/05/01 09:48:09;;;;;;;;;2.33;1.00;;;;;17.11;33.75;98743.56;4962681;28;101794;-75
2023/05/01 09:50:38;;;;;;;;;1.33;1.33;;;;;17.06;32.36;98735.25;4957600;28;101627;-75
2023/05/01 09:53:05;;;;;;;;;1.67;0.67;;;;;17.35;32.09;98735.06;4962987;28;101620;-76
2023/05/01 09:55:33;;;;;;;;;0.00;0.00;;;;;17.25;30.30;98743.03;4956559;28;103365;-77
2023/05/01 09:58:01;;;;;;;;;1.00;0.00;;;;;17.46;32.79;98730.63;4965380;28;101873;-77
2023/05/01 10:00:28;;;;;;;;;1.67;1.67;;;;;17.64;29.68;98732.41;4965813;28;101886;-76
2023/05/01 10:02:55;;;;;;;;;2.00;2.00;;;;;17.25;29.87;98723.91;4967813;28;102397;-75
2023/05/01 10:05:23;;;;;;;;;3.00;3.00;;;;;17.13;30.65;98731.31;4960304;28;104651;-76
2023/05/01 10:08:13;;;;;;;;;3.33;3.00;;;;;17.13;31.11;98722.28;4964646;28;101653;-75
2023/05/01 10:10:42;;;;;;;;;4.00;4.00;;;;;16.95;31.12;98732.28;4960490;28;101943;-76
2023/05/01 10:13:14;;;;;;;;;3.00;3.00;;;;;17.01;32.65;98730.50;4968670;28;102001;-76
2023/05/01 10:15:41;;;;;;;;;3.00;3.00;;;;;17.26;33.86;98716.53;4952846;28;103497;-77
2023/05/01 10:18:12;;;;;;;;;1.00;1.00;;;;;17.59;31.61;98722.19;4970866;28;105504;-78
2023/05/01 10:20:39;;;;;;;;;1.00;1.00;;;;;17.35;31.77;98679.56;4969567;28;101793;-76
2023/05/01 10:23:07;;;;;;;;;1.67;1.67;;;;;17.68;33.07;98712.53;4968792;28;101478;-75
2023/05/01 10:25:35;;;;;;;;;4.33;2.67;;;;;17.92;32.78;98723.38;4965024;28;103410;-77
2023/05/01 10:28:06;;;;;;;;;2.00;1.00;;;;;17.96;30.67;98692.53;4966914;28;102006;-75
2023/05/01 10:30:34;;;;;;;;;2.67;2.67;;;;;18.13;30.74;98714.44;4968012;28;103200;-76
2023/05/01 10:33:02;;;;;;;;;1.00;1.00;;;;;18.09;27.01;98707.81;4959018;28;101623;-77
2023/05/01 10:35:37;;;;;;;;;1.00;1.00;;;;;18.19;27.40;98705.25;4958837;28;103407;-76
2023/05/01 10:38:06;;;;;;;;;1.33;0.67;;;;;18.17;32.41;98690.97;4963580;28;101800;-76
2023/05/01 10:40:42;;;;;;;;;1.00;1.00;;;;;18.33;28.36;98692.88;4970353;28;101889;-75
2023/05/01 10:43:20;;;;;;;;;0.00;0.00;;;;;18.45;29.23;98695.56;4966800;28;101583;-76
2023/05/01 10:45:47;;;;;;;;;1.33;0.33;;;;;18.52;28.97;98697.03;4958476;27;108079;-77
2023/05/01 10:48:36;;;;;;;;;1.00;1.00;;;;;18.52;27.88;98686.06;4956362;28;101608;-76
2023/05/01 10:51:14;;;;;;;;;1.00;1.00;;;;;18.26;27.15;98676.63;4952659;28;101914;-76
2023/05/01 10:53:43;;;;;;;;;0.00;0.00;;;;;18.38;27.67;98690.22;4978115;28;102476;-76
2023/05/01 10:56:31;;;;;;;;;0.00;0.00;;;;;18.54;27.18;98683.97;4963225;28;103361;-77
2023/05/01 10:59:03;;;;;;;;;0.00;0.00;;;;;18.73;28.18;98689.19;4951889;28;103227;-75
2023/05/01 11:01:52;;;;;;;;;1.00;1.00;;;;;18.59;29.16;98681.31;4955746;28;101644;-75
2023/05/01 11:04:23;;;;;;;;;1.00;1.00;;;;;18.76;27.13;98683.19;4958470;28;101937;-75
2023/05/01 11:06:56;;;;;;;;;2.00;1.00;;;;;18.75;26.15;98685.09;4968768;28;103447;-76
2023/05/01 11:09:43;;;;;;;;;0.00;0.00;;;;;18.99;26.05;98680.22;4965037;28;101615;-75
2023/05/01 11:12:14;;;;;;;;;1.00;0.00;;;;;18.97;27.76;98680.47;4956227;28;101456;-76
2023/05/01 11:14:54;;;;;;;;;1.00;0.00;;;;;18.99;27.70;98674.75;4960644;28;101890;-76
2023/05/01 11:17:42;;;;;;;;;2.00;1.00;;;;;18.61;25.88;98678.31;4957740;28;108354;-77
2023/05/01 11:20:35;;;;;;;;;1.00;1.00;;;;;18.46;26.44;98672.56;4964651;28;101615;-76
2023/05/01 11:23:02;;;;;;;;;2.00;1.33;;;;;18.22;23.13;98663.69;4954711;28;101394;-76
2023/05/01 11:25:30;;;;;;;;;1.00;1.00;;;;;18.15;23.45;98668.47;4967477;28;103276;-76
2023/05/01 11:28:00;;;;;;;;;0.33;0.33;;;;;18.38;28.16;98651.91;4965485;28;103528;-75
2023/05/01 11:30:38;;;;;;;;;2.33;2.00;;;;;18.14;23.20;98650.44;4967342;28;101575;-76
2023/05/01 11:33:06;;;;;;;;;1.67;1.67;;;;;18.31;24.59;98650.41;4968092;28;101561;-74
2023/05/01 11:35:37;;;;;;;;;2.00;1.00;;;;;18.21;25.32;98640.13;4961358;28;101528;-75
2023/05/01 11:38:04;;;;;;;;;1.00;1.00;;;;;18.54;26.59;98640.16;4964470;28;103464;-76